sensor_id;sensor_type;location;lat;lon;timestamp;P1;durP1;ratioP1;P2;durP2;ratioP2
5521;SDS011;2783;48.730;8.006;2022-12-07T00:01:25;16.95;;;8.48;;
5521;SDS011;2783;48.730;8.006;2022-12-07T00:03:53;16.90;;;8.52;;
5521;SDS011;2783;48.730;8.006;2022-12-07T00:06:28;16.42;;;9.65;;
5521;SDS011;2783;48.730;8.006;2022-12-07T00:08:54;16.20;;;9.35;;
5521;SDS011;2783;48.730;8.006;2022-12-07T00:11:20;17.60;;;9.05;;
5521;SDS011;2783;48.730;8.006;2022-12-07T00:13:47;17.17;;;8.38;;
5521;SDS011;2783;48.730;8.006;2022-12-07T00:16:18;18.80;;;10.05;;
5521;SDS011;2783;48.730;8.006;2022-12-07T00:18:45;17.63;;;8.43;;
5521;SDS011;2783;48.730;8.006;2022-12-07T00:21:12;16.52;;;9.25;;
5521;SDS011;2783;48.730;8.006;2022-12-07T00:23:39;16.00;;;8.70;;
5521;SDS011;2783;48.730;8.006;2022-12-07T00:28:38;18.05;;;9.02;;
5521;SDS011;2783;48.730;8.006;2022-12-07T00:31:08;17.42;;;9.15;;
5521;SDS011;2783;48.730;8.006;2022-12-07T00:33:35;17.95;;;9.05;;
5521;SDS011;2783;48.730;8.006;2022-12-07T00:36:02;17.48;;;8.73;;
5521;SDS011;2783;48.730;8.006;2022-12-07T00:38:30;19.90;;;9.85;;
5521;SDS011;2783;48.730;8.006;2022-12-07T00:40:57;15.52;;;8.02;;
5521;SDS011;2783;48.730;8.006;2022-12-07T00:43:24;17.92;;;8.35;;
5521;SDS011;2783;48.730;8.006;2022-12-07T00:45:49;16.02;;;9.02;;
5521;SDS011;2783;48.730;8.006;2022-12-07T00:48:15;18.08;;;8.32;;
5521;SDS011;2783;48.730;8.006;2022-12-07T00:50:40;17.27;;;7.82;;
5521;SDS011;2783;48.730;8.006;2022-12-07T00:53:05;15.93;;;7.95;;
5521;SDS011;2783;48.730;8.006;2022-12-07T00:55:34;18.88;;;8.13;;
5521;SDS011;2783;48.730;8.006;2022-12-07T00:58:00;16.08;;;8.95;;
5521;SDS011;2783;48.730;8.006;2022-12-07T01:00:26;18.42;;;7.70;;
5521;SDS011;2783;48.730;8.006;2022-12-07T01:02:51;17.70;;;8.57;;
5521;SDS011;2783;48.730;8.006;2022-12-07T01:05:17;21.73;;;8.48;;
5521;SDS011;2783;48.730;8.006;2022-12-07T01:07:42;16.30;;;8.02;;
5521;SDS011;2783;48.730;8.006;2022-12-07T01:10:08;15.27;;;7.88;;
5521;SDS011;2783;48.730;8.006;2022-12-07T01:12:33;13.38;;;7.22;;
5521;SDS011;2783;48.730;8.006;2022-12-07T01:14:59;16.55;;;7.88;;
5521;SDS011;2783;48.730;8.006;2022-12-07T01:17:24;13.25;;;7.28;;
5521;SDS011;2783;48.730;8.006;2022-12-07T01:19:50;17.95;;;8.35;;
5521;SDS011;2783;48.730;8.006;2022-12-07T01:22:15;15.65;;;8.70;;
5521;SDS011;2783;48.730;8.006;2022-12-07T01:24:40;16.65;;;7.95;;
5521;SDS011;2783;48.730;8.006;2022-12-07T01:27:06;15.20;;;7.63;;
5521;SDS011;2783;48.730;8.006;2022-12-07T01:29:31;15.70;;;8.50;;
5521;SDS011;2783;48.730;8.006;2022-12-07T01:31:57;17.52;;;8.95;;
5521;SDS011;2783;48.730;8.006;2022-12-07T01:34:22;16.92;;;8.90;;
5521;SDS011;2783;48.730;8.006;2022-12-07T01:36:48;18.27;;;9.38;;
5521;SDS011;2783;48.730;8.006;2022-12-07T01:39:13;16.13;;;9.15;;
5521;SDS011;2783;48.730;8.006;2022-12-07T01:41:39;19.58;;;9.68;;
5521;SDS011;2783;48.730;8.006;2022-12-07T01:44:15;18.75;;;8.30;;
5521;SDS011;2783;48.730;8.006;2022-12-07T01:46:46;16.90;;;8.43;;
5521;SDS011;2783;48.730;8.006;2022-12-07T01:49:26;18.30;;;9.38;;
5521;SDS011;2783;48.730;8.006;2022-12-07T01:51:58;20.48;;;9.73;;
5521;SDS011;2783;48.730;8.006;2022-12-07T01:54:35;20.83;;;10.90;;
5521;SDS011;2783;48.730;8.006;2022-12-07T01:57:01;20.70;;;10.02;;
5521;SDS011;2783;48.730;8.006;2022-12-07T01:59:29;22.02;;;11.32;;
5521;SDS011;2783;48.730;8.006;2022-12-07T02:01:54;20.83;;;10.35;;
5521;SDS011;2783;48.730;8.006;2022-12-07T02:04:21;18.08;;;9.93;;
5521;SDS011;2783;48.730;8.006;2022-12-07T02:06:47;18.02;;;9.05;;
5521;SDS011;2783;48.730;8.006;2022-12-07T02:09:13;14.90;;;8.68;;
5521;SDS011;2783;48.730;8.006;2022-12-07T02:11:39;21.10;;;9.60;;
5521;SDS011;2783;48.730;8.006;2022-12-07T02:14:05;15.13;;;8.57;;
5521;SDS011;2783;48.730;8.006;2022-12-07T02:16:38;19.40;;;9.88;;
5521;SDS011;2783;48.730;8.006;2022-12-07T02:23:13;21.58;;;9.02;;
5521;SDS011;2783;48.730;8.006;2022-12-07T02:28:28;14.23;;;8.23;;
5521;SDS011;2783;48.730;8.006;2022-12-07T02:31:17;16.02;;;9.32;;
5521;SDS011;2783;48.730;8.006;2022-12-07T02:33:50;20.00;;;9.52;;
5521;SDS011;2783;48.730;8.006;2022-12-07T02:36:26;17.23;;;8.65;;
5521;SDS011;2783;48.730;8.006;2022-12-07T02:38:59;15.30;;;8.05;;
5521;SDS011;2783;48.730;8.006;2022-12-07T02:44:10;18.02;;;9.27;;
5521;SDS011;2783;48.730;8.006;2022-12-07T02:46:43;17.70;;;9.55;;
5521;SDS011;2783;48.730;8.006;2022-12-07T02:49:14;14.73;;;7.40;;
5521;SDS011;2783;48.730;8.006;2022-12-07T02:51:41;17.95;;;8.23;;
5521;SDS011;2783;48.730;8.006;2022-12-07T02:54:18;18.63;;;9.40;;
5521;SDS011;2783;48.730;8.006;2022-12-07T03:04:27;20.48;;;9.82;;
5521;SDS011;2783;48.730;8.006;2022-12-07T03:07:21;18.92;;;9.95;;
5521;SDS011;2783;48.730;8.006;2022-12-07T03:10:09;16.75;;;9.05;;
5521;SDS011;2783;48.730;8.006;2022-12-07T03:15:54;16.58;;;9.00;;
5521;SDS011;2783;48.730;8.006;2022-12-07T03:18:28;18.35;;;8.90;;
5521;SDS011;2783;48.730;8.006;2022-12-07T03:20:58;15.07;;;7.00;;
5521;SDS011;2783;48.730;8.006;2022-12-07T03:23:29;19.15;;;9.13;;
5521;SDS011;2783;48.730;8.006;2022-12-07T03:26:00;20.60;;;9.52;;
5521;SDS011;2783;48.730;8.006;2022-12-07T03:28:27;16.90;;;8.85;;
5521;SDS011;2783;48.730;8.006;2022-12-07T03:34:03;18.92;;;9.32;;
5521;SDS011;2783;48.730;8.006;2022-12-07T03:36:41;16.95;;;8.68;;
5521;SDS011;2783;48.730;8.006;2022-12-07T03:39:26;21.85;;;9.27;;
5521;SDS011;2783;48.730;8.006;2022-12-07T03:42:07;16.48;;;7.95;;
5521;SDS011;2783;48.730;8.006;2022-12-07T03:44:35;19.02;;;9.05;;
5521;SDS011;2783;48.730;8.006;2022-12-07T03:47:03;16.15;;;8.75;;
5521;SDS011;2783;48.730;8.006;2022-12-07T03:49:41;16.20;;;8.82;;
5521;SDS011;2783;48.730;8.006;2022-12-07T03:52:12;18.50;;;9.80;;
5521;SDS011;2783;48.730;8.006;2022-12-07T03:54:56;18.23;;;8.70;;
5521;SDS011;2783;48.730;8.006;2022-12-07T03:57:26;16.88;;;8.57;;
5521;SDS011;2783;48.730;8.006;2022-12-07T03:59:54;18.58;;;8.05;;
5521;SDS011;2783;48.730;8.006;2022-12-07T04:02:22;30.23;;;9.25;;
5521;SDS011;2783;48.730;8.006;2022-12-07T04:04:50;19.35;;;9.13;;
5521;SDS011;2783;48.730;8.006;2022-12-07T04:07:15;18.95;;;8.93;;
5521;SDS011;2783;48.730;8.006;2022-12-07T04:09:41;18.35;;;9.13;;
5521;SDS011;2783;48.730;8.006;2022-12-07T04:12:06;18.58;;;8.20;;
5521;SDS011;2783;48.730;8.006;2022-12-07T04:14:32;18.38;;;8.57;;
5521;SDS011;2783;48.730;8.006;2022-12-07T04:16:58;21.05;;;9.30;;
5521;SDS011;2783;48.730;8.006;2022-12-07T04:19:25;30.83;;;10.20;;
5521;SDS011;2783;48.730;8.006;2022-12-07T04:21:55;22.67;;;10.50;;
5521;SDS011;2783;48.730;8.006;2022-12-07T04:24:21;19.98;;;10.10;;
5521;SDS011;2783;48.730;8.006;2022-12-07T04:26:47;25.58;;;11.70;;
5521;SDS011;2783;48.730;8.006;2022-12-07T04:29:13;21.15;;;10.80;;
5521;SDS011;2783;48.730;8.006;2022-12-07T04:31:39;25.02;;;12.55;;
5521;SDS011;2783;48.730;8.006;2022-12-07T04:34:05;24.92;;;12.07;;
5521;SDS011;2783;48.730;8.006;2022-12-07T04:36:31;26.45;;;11.77;;
5521;SDS011;2783;48.730;8.006;2022-12-07T04:38:57;25.70;;;11.55;;
5521;SDS011;2783;48.730;8.006;2022-12-07T04:41:23;23.08;;;11.40;;
5521;SDS011;2783;48.730;8.006;2022-12-07T04:43:54;15.52;;;8.32;;
5521;SDS011;2783;48.730;8.006;2022-12-07T04:46:20;17.55;;;9.82;;
5521;SDS011;2783;48.730;8.006;2022-12-07T04:48:47;24.08;;;10.07;;
5521;SDS011;2783;48.730;8.006;2022-12-07T04:51:14;16.60;;;8.88;;
5521;SDS011;2783;48.730;8.006;2022-12-07T04:53:43;18.35;;;9.38;;
5521;SDS011;2783;48.730;8.006;2022-12-07T04:56:08;24.08;;;10.23;;
5521;SDS011;2783;48.730;8.006;2022-12-07T04:58:34;21.23;;;9.52;;
5521;SDS011;2783;48.730;8.006;2022-12-07T05:00:59;25.98;;;11.13;;
5521;SDS011;2783;48.730;8.006;2022-12-07T05:03:24;22.98;;;10.30;;
5521;SDS011;2783;48.730;8.006;2022-12-07T05:05:50;17.50;;;9.65;;
5521;SDS011;2783;48.730;8.006;2022-12-07T05:08:15;22.35;;;9.82;;
5521;SDS011;2783;48.730;8.006;2022-12-07T05:10:41;18.48;;;9.77;;
5521;SDS011;2783;48.730;8.006;2022-12-07T05:13:06;19.95;;;11.15;;
5521;SDS011;2783;48.730;8.006;2022-12-07T05:15:31;18.42;;;8.65;;
5521;SDS011;2783;48.730;8.006;2022-12-07T05:17:57;19.90;;;9.88;;
5521;SDS011;2783;48.730;8.006;2022-12-07T05:20:22;19.48;;;8.93;;
5521;SDS011;2783;48.730;8.006;2022-12-07T05:22:48;21.08;;;10.52;;
5521;SDS011;2783;48.730;8.006;2022-12-07T05:25:13;22.30;;;10.50;;
5521;SDS011;2783;48.730;8.006;2022-12-07T05:27:39;19.08;;;10.35;;
5521;SDS011;2783;48.730;8.006;2022-12-07T05:30:04;22.33;;;10.15;;
5521;SDS011;2783;48.730;8.006;2022-12-07T05:32:30;21.98;;;10.55;;
5521;SDS011;2783;48.730;8.006;2022-12-07T05:34:56;24.10;;;10.10;;
5521;SDS011;2783;48.730;8.006;2022-12-07T05:37:21;22.63;;;11.23;;
5521;SDS011;2783;48.730;8.006;2022-12-07T05:39:47;23.83;;;10.70;;
5521;SDS011;2783;48.730;8.006;2022-12-07T05:42:12;22.02;;;9.63;;
5521;SDS011;2783;48.730;8.006;2022-12-07T05:44:38;28.00;;;9.75;;
5521;SDS011;2783;48.730;8.006;2022-12-07T05:47:07;22.50;;;11.55;;
5521;SDS011;2783;48.730;8.006;2022-12-07T05:49:33;25.65;;;11.50;;
5521;SDS011;2783;48.730;8.006;2022-12-07T05:51:58;22.27;;;12.20;;
5521;SDS011;2783;48.730;8.006;2022-12-07T05:54:24;23.67;;;10.95;;
5521;SDS011;2783;48.730;8.006;2022-12-07T05:56:50;22.38;;;10.48;;
5521;SDS011;2783;48.730;8.006;2022-12-07T05:59:15;29.20;;;11.95;;
5521;SDS011;2783;48.730;8.006;2022-12-07T06:01:47;43.22;;;14.07;;
5521;SDS011;2783;48.730;8.006;2022-12-07T06:04:16;39.05;;;14.05;;
5521;SDS011;2783;48.730;8.006;2022-12-07T06:06:42;24.42;;;10.60;;
5521;SDS011;2783;48.730;8.006;2022-12-07T06:09:07;29.08;;;12.55;;
5521;SDS011;2783;48.730;8.006;2022-12-07T06:11:32;35.97;;;14.00;;
5521;SDS011;2783;48.730;8.006;2022-12-07T06:14:16;30.27;;;12.15;;
5521;SDS011;2783;48.730;8.006;2022-12-07T06:16:42;28.10;;;12.80;;
5521;SDS011;2783;48.730;8.006;2022-12-07T06:19:07;25.95;;;14.25;;
5521;SDS011;2783;48.730;8.006;2022-12-07T06:21:33;26.27;;;13.32;;
5521;SDS011;2783;48.730;8.006;2022-12-07T06:23:58;21.50;;;11.48;;
5521;SDS011;2783;48.730;8.006;2022-12-07T06:26:24;21.20;;;11.60;;
5521;SDS011;2783;48.730;8.006;2022-12-07T06:28:49;20.95;;;10.90;;
5521;SDS011;2783;48.730;8.006;2022-12-07T06:31:15;28.08;;;12.70;;
5521;SDS011;2783;48.730;8.006;2022-12-07T06:33:41;29.50;;;13.95;;
5521;SDS011;2783;48.730;8.006;2022-12-07T06:36:07;42.42;;;18.25;;
5521;SDS011;2783;48.730;8.006;2022-12-07T06:38:33;40.33;;;17.50;;
5521;SDS011;2783;48.730;8.006;2022-12-07T06:40:58;30.33;;;15.27;;
5521;SDS011;2783;48.730;8.006;2022-12-07T06:43:24;26.67;;;13.88;;
5521;SDS011;2783;48.730;8.006;2022-12-07T06:45:49;25.27;;;13.57;;
5521;SDS011;2783;48.730;8.006;2022-12-07T06:48:15;27.73;;;12.35;;
5521;SDS011;2783;48.730;8.006;2022-12-07T06:50:41;29.75;;;11.75;;
5521;SDS011;2783;48.730;8.006;2022-12-07T06:53:09;28.20;;;14.57;;
5521;SDS011;2783;48.730;8.006;2022-12-07T06:55:35;26.15;;;13.25;;
5521;SDS011;2783;48.730;8.006;2022-12-07T06:58:00;22.75;;;11.02;;
5521;SDS011;2783;48.730;8.006;2022-12-07T07:00:26;19.52;;;10.77;;
5521;SDS011;2783;48.730;8.006;2022-12-07T07:02:52;20.13;;;11.05;;
5521;SDS011;2783;48.730;8.006;2022-12-07T07:05:17;24.20;;;12.73;;
5521;SDS011;2783;48.730;8.006;2022-12-07T07:07:43;27.80;;;13.10;;
5521;SDS011;2783;48.730;8.006;2022-12-07T07:10:08;33.80;;;15.70;;
5521;SDS011;2783;48.730;8.006;2022-12-07T07:12:34;25.98;;;12.95;;
5521;SDS011;2783;48.730;8.006;2022-12-07T07:14:59;21.58;;;12.52;;
5521;SDS011;2783;48.730;8.006;2022-12-07T07:17:25;24.60;;;13.27;;
5521;SDS011;2783;48.730;8.006;2022-12-07T07:19:50;30.10;;;13.55;;
5521;SDS011;2783;48.730;8.006;2022-12-07T07:22:15;25.90;;;13.10;;
5521;SDS011;2783;48.730;8.006;2022-12-07T07:24:41;25.80;;;11.50;;
5521;SDS011;2783;48.730;8.006;2022-12-07T07:27:06;80.25;;;35.58;;
5521;SDS011;2783;48.730;8.006;2022-12-07T07:29:32;50.63;;;24.48;;
5521;SDS011;2783;48.730;8.006;2022-12-07T07:31:57;28.70;;;14.70;;
5521;SDS011;2783;48.730;8.006;2022-12-07T07:34:23;24.33;;;12.48;;
5521;SDS011;2783;48.730;8.006;2022-12-07T07:36:48;28.98;;;12.77;;
5521;SDS011;2783;48.730;8.006;2022-12-07T07:39:13;34.78;;;17.02;;
5521;SDS011;2783;48.730;8.006;2022-12-07T07:41:39;49.35;;;20.38;;
5521;SDS011;2783;48.730;8.006;2022-12-07T07:44:04;38.85;;;19.27;;
5521;SDS011;2783;48.730;8.006;2022-12-07T07:46:30;22.45;;;12.10;;
5521;SDS011;2783;48.730;8.006;2022-12-07T07:48:56;25.08;;;12.80;;
5521;SDS011;2783;48.730;8.006;2022-12-07T07:51:21;36.20;;;15.45;;
5521;SDS011;2783;48.730;8.006;2022-12-07T07:53:47;68.28;;;29.63;;
5521;SDS011;2783;48.730;8.006;2022-12-07T07:56:12;28.70;;;13.68;;
5521;SDS011;2783;48.730;8.006;2022-12-07T07:58:37;27.20;;;13.95;;
5521;SDS011;2783;48.730;8.006;2022-12-07T08:01:06;28.92;;;12.75;;
5521;SDS011;2783;48.730;8.006;2022-12-07T08:03:33;19.55;;;10.57;;
5521;SDS011;2783;48.730;8.006;2022-12-07T08:05:58;22.83;;;10.65;;
5521;SDS011;2783;48.730;8.006;2022-12-07T08:08:24;19.88;;;10.85;;
5521;SDS011;2783;48.730;8.006;2022-12-07T08:10:49;16.63;;;10.25;;
5521;SDS011;2783;48.730;8.006;2022-12-07T08:13:15;23.23;;;12.07;;
5521;SDS011;2783;48.730;8.006;2022-12-07T08:15:45;24.67;;;11.18;;
5521;SDS011;2783;48.730;8.006;2022-12-07T08:18:12;21.25;;;11.52;;
5521;SDS011;2783;48.730;8.006;2022-12-07T08:20:39;20.98;;;11.80;;
5521;SDS011;2783;48.730;8.006;2022-12-07T08:23:06;21.38;;;11.13;;
5521;SDS011;2783;48.730;8.006;2022-12-07T08:25:32;24.88;;;11.57;;
5521;SDS011;2783;48.730;8.006;2022-12-07T08:27:58;19.52;;;10.63;;
5521;SDS011;2783;48.730;8.006;2022-12-07T08:30:25;20.08;;;9.88;;
5521;SDS011;2783;48.730;8.006;2022-12-07T08:32:50;18.33;;;9.60;;
5521;SDS011;2783;48.730;8.006;2022-12-07T08:35:16;22.67;;;11.00;;
5521;SDS011;2783;48.730;8.006;2022-12-07T08:37:41;20.55;;;9.32;;
5521;SDS011;2783;48.730;8.006;2022-12-07T08:40:08;19.92;;;10.10;;
5521;SDS011;2783;48.730;8.006;2022-12-07T08:42:34;22.00;;;11.40;;
5521;SDS011;2783;48.730;8.006;2022-12-07T08:45:09;21.05;;;10.30;;
5521;SDS011;2783;48.730;8.006;2022-12-07T08:47:37;20.55;;;9.63;;
5521;SDS011;2783;48.730;8.006;2022-12-07T08:50:07;18.10;;;9.82;;
5521;SDS011;2783;48.730;8.006;2022-12-07T08:52:35;22.00;;;9.93;;
5521;SDS011;2783;48.730;8.006;2022-12-07T08:55:01;19.23;;;10.55;;
5521;SDS011;2783;48.730;8.006;2022-12-07T08:57:28;19.25;;;9.45;;
5521;SDS011;2783;48.730;8.006;2022-12-07T08:59:54;17.92;;;9.13;;
5521;SDS011;2783;48.730;8.006;2022-12-07T09:02:20;18.95;;;9.50;;
5521;SDS011;2783;48.730;8.006;2022-12-07T09:04:46;17.05;;;9.02;;
5521;SDS011;2783;48.730;8.006;2022-12-07T09:07:11;13.95;;;8.02;;
5521;SDS011;2783;48.730;8.006;2022-12-07T09:09:37;15.80;;;9.20;;
5521;SDS011;2783;48.730;8.006;2022-12-07T09:12:02;15.75;;;8.43;;
5521;SDS011;2783;48.730;8.006;2022-12-07T09:14:28;16.08;;;9.30;;
5521;SDS011;2783;48.730;8.006;2022-12-07T09:16:53;20.13;;;8.48;;
5521;SDS011;2783;48.730;8.006;2022-12-07T09:19:19;18.42;;;10.10;;
5521;SDS011;2783;48.730;8.006;2022-12-07T09:21:44;20.17;;;9.05;;
5521;SDS011;2783;48.730;8.006;2022-12-07T09:24:11;20.23;;;8.82;;
5521;SDS011;2783;48.730;8.006;2022-12-07T09:26:37;20.00;;;9.73;;
5521;SDS011;2783;48.730;8.006;2022-12-07T09:29:04;17.08;;;10.00;;
5521;SDS011;2783;48.730;8.006;2022-12-07T09:31:29;18.30;;;9.90;;
5521;SDS011;2783;48.730;8.006;2022-12-07T09:33:56;20.15;;;9.52;;
5521;SDS011;2783;48.730;8.006;2022-12-07T09:36:25;14.88;;;8.50;;
5521;SDS011;2783;48.730;8.006;2022-12-07T09:38:52;16.92;;;8.95;;
5521;SDS011;2783;48.730;8.006;2022-12-07T09:41:18;18.33;;;9.30;;
5521;SDS011;2783;48.730;8.006;2022-12-07T09:43:44;18.17;;;9.20;;
5521;SDS011;2783;48.730;8.006;2022-12-07T09:46:14;18.25;;;10.50;;
5521;SDS011;2783;48.730;8.006;2022-12-07T09:48:43;19.27;;;9.68;;
5521;SDS011;2783;48.730;8.006;2022-12-07T09:51:17;14.68;;;8.55;;
5521;SDS011;2783;48.730;8.006;2022-12-07T09:53:45;15.93;;;11.70;;
5521;SDS011;2783;48.730;8.006;2022-12-07T09:56:11;18.63;;;9.63;;
5521;SDS011;2783;48.730;8.006;2022-12-07T09:58:39;17.85;;;9.52;;
5521;SDS011;2783;48.730;8.006;2022-12-07T10:03:33;19.33;;;9.32;;
5521;SDS011;2783;48.730;8.006;2022-12-07T10:06:00;15.30;;;7.57;;
5521;SDS011;2783;48.730;8.006;2022-12-07T10:08:26;17.58;;;8.52;;
5521;SDS011;2783;48.730;8.006;2022-12-07T10:10:52;24.80;;;9.98;;
5521;SDS011;2783;48.730;8.006;2022-12-07T10:13:37;19.63;;;10.48;;
5521;SDS011;2783;48.730;8.006;2022-12-07T10:16:05;19.23;;;9.88;;
5521;SDS011;2783;48.730;8.006;2022-12-07T10:18:41;19.40;;;11.88;;
5521;SDS011;2783;48.730;8.006;2022-12-07T10:21:17;19.30;;;10.55;;
5521;SDS011;2783;48.730;8.006;2022-12-07T10:26:31;14.63;;;6.40;;
5521;SDS011;2783;48.730;8.006;2022-12-07T10:29:00;16.73;;;8.37;;
5521;SDS011;2783;48.730;8.006;2022-12-07T10:31:41;15.98;;;7.95;;
5521;SDS011;2783;48.730;8.006;2022-12-07T10:34:24;18.83;;;8.35;;
5521;SDS011;2783;48.730;8.006;2022-12-07T10:36:52;12.63;;;7.97;;
5521;SDS011;2783;48.730;8.006;2022-12-07T10:39:19;15.95;;;8.68;;
5521;SDS011;2783;48.730;8.006;2022-12-07T10:44:21;15.77;;;8.27;;
5521;SDS011;2783;48.730;8.006;2022-12-07T10:52:28;13.57;;;8.10;;
5521;SDS011;2783;48.730;8.006;2022-12-07T10:55:17;15.57;;;8.18;;
5521;SDS011;2783;48.730;8.006;2022-12-07T11:11:27;11.93;;;6.97;;
5521;SDS011;2783;48.730;8.006;2022-12-07T11:19:48;12.23;;;6.90;;
5521;SDS011;2783;48.730;8.006;2022-12-07T11:22:36;12.45;;;6.93;;
5521;SDS011;2783;48.730;8.006;2022-12-07T11:25:32;14.60;;;6.63;;
5521;SDS011;2783;48.730;8.006;2022-12-07T11:28:13;15.60;;;7.63;;
5521;SDS011;2783;48.730;8.006;2022-12-07T11:31:12;16.27;;;8.20;;
5521;SDS011;2783;48.730;8.006;2022-12-07T11:33:57;12.02;;;6.75;;
5521;SDS011;2783;48.730;8.006;2022-12-07T11:36:35;17.35;;;7.40;;
5521;SDS011;2783;48.730;8.006;2022-12-07T11:39:15;14.02;;;8.65;;
5521;SDS011;2783;48.730;8.006;2022-12-07T11:42:03;17.20;;;8.00;;
5521;SDS011;2783;48.730;8.006;2022-12-07T11:47:28;15.82;;;8.27;;
5521;SDS011;2783;48.730;8.006;2022-12-07T11:50:25;16.90;;;9.25;;
5521;SDS011;2783;48.730;8.006;2022-12-07T11:53:06;17.83;;;8.52;;
5521;SDS011;2783;48.730;8.006;2022-12-07T11:55:52;16.65;;;8.73;;
5521;SDS011;2783;48.730;8.006;2022-12-07T12:03:49;16.23;;;8.50;;
5521;SDS011;2783;48.730;8.006;2022-12-07T12:06:19;16.17;;;9.68;;
5521;SDS011;2783;48.730;8.006;2022-12-07T12:22:32;13.75;;;7.90;;
5521;SDS011;2783;48.730;8.006;2022-12-07T12:25:02;13.40;;;7.32;;
5521;SDS011;2783;48.730;8.006;2022-12-07T12:27:32;15.73;;;7.50;;
5521;SDS011;2783;48.730;8.006;2022-12-07T12:30:07;17.17;;;7.65;;
5521;SDS011;2783;48.730;8.006;2022-12-07T12:33:13;15.05;;;6.82;;
5521;SDS011;2783;48.730;8.006;2022-12-07T12:46:48;14.25;;;6.80;;
5521;SDS011;2783;48.730;8.006;2022-12-07T12:56:46;15.25;;;6.72;;
5521;SDS011;2783;48.730;8.006;2022-12-07T13:01:53;12.23;;;6.05;;
5521;SDS011;2783;48.730;8.006;2022-12-07T13:04:28;12.52;;;6.20;;
5521;SDS011;2783;48.730;8.006;2022-12-07T13:07:01;12.25;;;5.78;;
5521;SDS011;2783;48.730;8.006;2022-12-07T13:09:28;14.00;;;5.63;;
5521;SDS011;2783;48.730;8.006;2022-12-07T13:12:03;13.27;;;5.88;;
5521;SDS011;2783;48.730;8.006;2022-12-07T13:17:02;13.32;;;6.43;;
5521;SDS011;2783;48.730;8.006;2022-12-07T13:24:59;15.57;;;6.57;;
5521;SDS011;2783;48.730;8.006;2022-12-07T13:27:40;11.55;;;5.53;;
5521;SDS011;2783;48.730;8.006;2022-12-07T13:30:12;10.18;;;5.93;;
5521;SDS011;2783;48.730;8.006;2022-12-07T13:32:40;11.32;;;5.43;;
5521;SDS011;2783;48.730;8.006;2022-12-07T13:37:53;12.30;;;7.22;;
5521;SDS011;2783;48.730;8.006;2022-12-07T13:40:20;11.82;;;6.88;;
5521;SDS011;2783;48.730;8.006;2022-12-07T13:42:47;13.85;;;6.10;;
5521;SDS011;2783;48.730;8.006;2022-12-07T13:45:23;12.25;;;6.47;;
5521;SDS011;2783;48.730;8.006;2022-12-07T13:51:00;12.68;;;6.15;;
5521;SDS011;2783;48.730;8.006;2022-12-07T13:53:28;12.77;;;6.88;;
5521;SDS011;2783;48.730;8.006;2022-12-07T13:55:55;12.45;;;6.47;;
5521;SDS011;2783;48.730;8.006;2022-12-07T13:58:23;12.20;;;6.07;;
5521;SDS011;2783;48.730;8.006;2022-12-07T14:00:49;9.60;;;5.63;;
5521;SDS011;2783;48.730;8.006;2022-12-07T14:05:41;11.98;;;6.47;;
5521;SDS011;2783;48.730;8.006;2022-12-07T14:10:37;12.52;;;6.30;;
5521;SDS011;2783;48.730;8.006;2022-12-07T14:15:52;16.20;;;6.90;;
5521;SDS011;2783;48.730;8.006;2022-12-07T14:18:25;15.25;;;6.85;;
5521;SDS011;2783;48.730;8.006;2022-12-07T14:21:05;13.10;;;7.13;;
5521;SDS011;2783;48.730;8.006;2022-12-07T14:23:41;13.10;;;6.35;;
5521;SDS011;2783;48.730;8.006;2022-12-07T14:26:18;13.95;;;7.68;;
5521;SDS011;2783;48.730;8.006;2022-12-07T14:28:44;13.63;;;8.10;;
5521;SDS011;2783;48.730;8.006;2022-12-07T14:31:12;15.25;;;7.13;;
5521;SDS011;2783;48.730;8.006;2022-12-07T14:33:39;14.25;;;7.40;;
5521;SDS011;2783;48.730;8.006;2022-12-07T14:36:05;15.07;;;6.95;;
5521;SDS011;2783;48.730;8.006;2022-12-07T14:38:31;17.13;;;6.85;;
5521;SDS011;2783;48.730;8.006;2022-12-07T14:40:56;13.38;;;6.82;;
5521;SDS011;2783;48.730;8.006;2022-12-07T14:43:42;15.23;;;6.70;;
5521;SDS011;2783;48.730;8.006;2022-12-07T14:46:08;13.30;;;6.78;;
5521;SDS011;2783;48.730;8.006;2022-12-07T14:48:34;15.55;;;6.90;;
5521;SDS011;2783;48.730;8.006;2022-12-07T14:50:59;14.60;;;6.85;;
5521;SDS011;2783;48.730;8.006;2022-12-07T14:53:28;11.90;;;6.60;;
5521;SDS011;2783;48.730;8.006;2022-12-07T14:55:58;13.98;;;7.18;;
5521;SDS011;2783;48.730;8.006;2022-12-07T14:58:24;15.00;;;8.27;;
5521;SDS011;2783;48.730;8.006;2022-12-07T15:00:49;12.50;;;6.07;;
5521;SDS011;2783;48.730;8.006;2022-12-07T15:03:14;16.95;;;7.47;;
5521;SDS011;2783;48.730;8.006;2022-12-07T15:05:40;15.48;;;7.85;;
5521;SDS011;2783;48.730;8.006;2022-12-07T15:08:06;14.45;;;7.57;;
5521;SDS011;2783;48.730;8.006;2022-12-07T15:10:32;15.27;;;7.18;;
5521;SDS011;2783;48.730;8.006;2022-12-07T15:12:59;13.90;;;7.15;;
5521;SDS011;2783;48.730;8.006;2022-12-07T15:15:44;15.88;;;7.85;;
5521;SDS011;2783;48.730;8.006;2022-12-07T15:18:09;12.77;;;7.22;;
5521;SDS011;2783;48.730;8.006;2022-12-07T15:20:35;13.00;;;7.43;;
5521;SDS011;2783;48.730;8.006;2022-12-07T15:23:00;14.20;;;6.82;;
5521;SDS011;2783;48.730;8.006;2022-12-07T15:25:26;12.40;;;6.70;;
5521;SDS011;2783;48.730;8.006;2022-12-07T15:27:51;15.70;;;7.90;;
5521;SDS011;2783;48.730;8.006;2022-12-07T15:30:16;14.40;;;7.63;;
5521;SDS011;2783;48.730;8.006;2022-12-07T15:32:42;15.48;;;7.38;;
5521;SDS011;2783;48.730;8.006;2022-12-07T15:35:07;13.57;;;6.13;;
5521;SDS011;2783;48.730;8.006;2022-12-07T15:37:33;15.23;;;7.82;;
5521;SDS011;2783;48.730;8.006;2022-12-07T15:39:58;12.25;;;7.20;;
5521;SDS011;2783;48.730;8.006;2022-12-07T15:42:24;17.00;;;7.25;;
5521;SDS011;2783;48.730;8.006;2022-12-07T15:44:49;14.52;;;6.90;;
5521;SDS011;2783;48.730;8.006;2022-12-07T15:47:30;15.10;;;7.22;;
5521;SDS011;2783;48.730;8.006;2022-12-07T15:50:01;14.45;;;6.85;;
5521;SDS011;2783;48.730;8.006;2022-12-07T15:52:27;14.02;;;6.38;;
5521;SDS011;2783;48.730;8.006;2022-12-07T15:54:53;17.45;;;8.10;;
5521;SDS011;2783;48.730;8.006;2022-12-07T15:57:18;15.95;;;7.63;;
5521;SDS011;2783;48.730;8.006;2022-12-07T15:59:44;15.07;;;8.13;;
5521;SDS011;2783;48.730;8.006;2022-12-07T16:02:09;13.80;;;7.15;;
5521;SDS011;2783;48.730;8.006;2022-12-07T16:04:35;14.43;;;7.57;;
5521;SDS011;2783;48.730;8.006;2022-12-07T16:07:01;13.55;;;7.68;;
5521;SDS011;2783;48.730;8.006;2022-12-07T16:09:27;15.35;;;7.07;;
5521;SDS011;2783;48.730;8.006;2022-12-07T16:11:53;15.90;;;7.60;;
5521;SDS011;2783;48.730;8.006;2022-12-07T16:14:18;14.20;;;6.97;;
5521;SDS011;2783;48.730;8.006;2022-12-07T16:16:44;16.40;;;7.03;;
5521;SDS011;2783;48.730;8.006;2022-12-07T16:19:10;15.82;;;7.45;;
5521;SDS011;2783;48.730;8.006;2022-12-07T16:21:36;14.27;;;7.28;;
5521;SDS011;2783;48.730;8.006;2022-12-07T16:24:01;14.35;;;7.22;;
5521;SDS011;2783;48.730;8.006;2022-12-07T16:26:27;12.60;;;7.20;;
5521;SDS011;2783;48.730;8.006;2022-12-07T16:28:53;13.23;;;5.90;;
5521;SDS011;2783;48.730;8.006;2022-12-07T16:31:20;16.80;;;7.07;;
5521;SDS011;2783;48.730;8.006;2022-12-07T16:33:48;14.40;;;7.07;;
5521;SDS011;2783;48.730;8.006;2022-12-07T16:36:15;12.57;;;6.28;;
5521;SDS011;2783;48.730;8.006;2022-12-07T16:38:41;17.30;;;8.88;;
5521;SDS011;2783;48.730;8.006;2022-12-07T16:41:08;14.57;;;7.50;;
5521;SDS011;2783;48.730;8.006;2022-12-07T16:43:34;15.85;;;6.80;;
5521;SDS011;2783;48.730;8.006;2022-12-07T16:46:00;12.80;;;6.97;;
5521;SDS011;2783;48.730;8.006;2022-12-07T16:48:25;14.13;;;7.32;;
5521;SDS011;2783;48.730;8.006;2022-12-07T16:50:51;16.52;;;6.78;;
5521;SDS011;2783;48.730;8.006;2022-12-07T16:53:18;17.17;;;8.02;;
5521;SDS011;2783;48.730;8.006;2022-12-07T16:55:45;33.90;;;7.15;;
5521;SDS011;2783;48.730;8.006;2022-12-07T16:58:12;12.85;;;6.55;;
5521;SDS011;2783;48.730;8.006;2022-12-07T17:00:38;38.45;;;8.80;;
5521;SDS011;2783;48.730;8.006;2022-12-07T17:03:04;16.13;;;8.20;;
5521;SDS011;2783;48.730;8.006;2022-12-07T17:05:30;15.52;;;7.45;;
5521;SDS011;2783;48.730;8.006;2022-12-07T17:07:56;13.98;;;6.97;;
5521;SDS011;2783;48.730;8.006;2022-12-07T17:10:22;17.60;;;7.45;;